createdAt,value
2019-04-22T00:00:10.656Z,20.26
2019-04-22T00:02:47.050Z,20.27
2019-04-22T00:05:18.897Z,20.30
2019-04-22T00:08:11.680Z,20.37
2019-04-22T00:10:40.706Z,20.55
2019-04-22T00:13:06.702Z,20.64
2019-04-22T00:15:33.967Z,20.35
2019-04-22T00:18:13.344Z,20.78
2019-04-22T00:20:44.012Z,20.64
2019-04-22T00:23:10.099Z,20.49
2019-04-22T00:25:46.566Z,20.55
2019-04-22T00:28:14.691Z,20.54
2019-04-22T00:30:43.702Z,20.73
2019-04-22T00:33:18.686Z,20.68
2019-04-22T00:35:41.625Z,20.52
2019-04-22T00:38:17.347Z,20.69
2019-04-22T00:40:44.933Z,20.58
2019-04-22T00:43:19.749Z,20.70
2019-04-22T00:48:21.042Z,20.31
2019-04-22T00:58:39.480Z,20.96
2019-04-22T01:01:09.071Z,20.94
2019-04-22T01:03:43.079Z,21.05
2019-04-22T01:06:14.565Z,21.02
2019-04-22T01:08:51.441Z,20.79
2019-04-22T01:11:17.896Z,21.10
2019-04-22T01:13:38.725Z,20.85
2019-04-22T01:16:13.809Z,20.85
2019-04-22T01:18:44.075Z,20.98
2019-04-22T01:21:22.604Z,20.89
2019-04-22T01:23:41.117Z,20.88
2019-04-22T01:26:10.012Z,20.96
2019-04-22T01:28:34.202Z,21.21
2019-04-22T01:31:01.979Z,21.23
2019-04-22T01:33:31.139Z,21.10
2019-04-22T01:36:15.728Z,21.11
2019-04-22T01:38:51.288Z,21.09
2019-04-22T01:41:28.272Z,21.28
2019-04-22T01:43:58.781Z,21.27
2019-04-22T01:46:25.766Z,21.46
2019-04-22T01:48:57.470Z,21.79
2019-04-22T01:51:28.317Z,21.84
2019-04-22T01:54:00.520Z,22.28
2019-04-22T01:56:28.932Z,22.06
2019-04-22T01:58:49.590Z,21.94
2019-04-22T02:01:30.869Z,21.69
2019-04-22T02:04:00.856Z,21.72
2019-04-22T02:06:33.157Z,21.85
2019-04-22T02:11:41.761Z,21.76
2019-04-22T02:14:09.182Z,21.98
2019-04-22T02:16:34.285Z,21.91
2019-04-22T02:19:11.448Z,21.95
2019-04-22T02:21:32.225Z,22.04
2019-04-22T02:24:07.393Z,21.93
2019-04-22T02:26:41.929Z,22.00
2019-04-22T02:29:11.046Z,22.03
2019-04-22T02:31:59.530Z,21.98
2019-04-22T02:34:17.121Z,22.24
2019-04-22T02:39:12.091Z,22.10
2019-04-22T02:41:54.780Z,22.11
2019-04-22T02:46:58.964Z,22.13
2019-04-22T02:51:52.269Z,22.45
2019-04-22T02:57:01.026Z,22.48
2019-04-22T02:59:14.216Z,22.55
2019-04-22T03:01:45.203Z,22.88
2019-04-22T03:04:22.795Z,22.95
2019-04-22T03:06:43.345Z,22.87
2019-04-22T03:09:18.487Z,22.83
2019-04-22T03:11:58.657Z,22.98
2019-04-22T03:14:22.669Z,23.00
2019-04-22T03:20:41.942Z,22.90
2019-04-22T03:28:13.490Z,23.27
2019-04-22T03:38:07.179Z,23.39
2019-04-22T03:40:53.174Z,23.26
2019-04-22T03:43:13.720Z,23.62
2019-04-22T03:46:06.304Z,23.47
2019-04-22T03:50:38.789Z,23.36
2019-04-22T03:55:43.372Z,23.64
2019-04-22T03:58:05.378Z,23.81
2019-04-22T04:00:49.685Z,23.76
2019-04-22T04:03:21.070Z,23.97
2019-04-22T04:08:21.760Z,24.05
2019-04-22T04:10:51.852Z,24.15
2019-04-22T04:13:24.808Z,23.82
2019-04-22T04:16:04.047Z,23.85
2019-04-22T04:18:21.249Z,23.88
2019-04-22T04:21:00.656Z,23.84
2019-04-22T04:23:28.843Z,24.15
2019-04-22T04:28:42.582Z,24.38
2019-04-22T04:31:09.932Z,24.80
2019-04-22T04:33:28.984Z,24.65
2019-04-22T04:38:38.921Z,24.68
2019-04-22T04:41:06.867Z,24.54
2019-04-22T04:43:35.617Z,24.47
2019-04-22T04:46:07.303Z,24.79
2019-04-22T04:53:55.703Z,24.63
2019-04-22T04:56:11.984Z,24.59
2019-04-22T05:01:17.510Z,24.59
2019-04-22T05:03:48.939Z,24.65
2019-04-22T05:06:12.620Z,24.53
2019-04-22T05:09:00.868Z,24.64
2019-04-22T05:11:16.164Z,24.51
2019-04-22T05:13:49.680Z,24.62
2019-04-22T05:18:47.195Z,24.41
2019-04-22T05:21:14.794Z,24.45
2019-04-22T05:23:48.838Z,24.26
2019-04-22T05:26:11.934Z,24.15
2019-04-22T05:28:42.249Z,24.00
2019-04-22T05:31:17.343Z,24.22
2019-04-22T05:33:40.969Z,24.02
2019-04-22T05:36:13.258Z,23.86
2019-04-22T05:38:50.243Z,23.71
2019-04-22T05:41:16.367Z,23.64
2019-04-22T05:43:55.061Z,23.49
2019-04-22T05:46:17.319Z,23.41
2019-04-22T05:48:52.221Z,23.25
2019-04-22T05:51:21.709Z,23.24
2019-04-22T05:53:48.193Z,23.15
2019-04-22T05:56:30.085Z,23.04
2019-04-22T05:58:53.313Z,23.07
2019-04-22T06:04:03.914Z,22.71
2019-04-22T06:08:57.584Z,22.52
2019-04-22T06:11:26.753Z,22.34
2019-04-22T06:13:51.906Z,22.27
2019-04-22T06:16:26.453Z,22.20
2019-04-22T06:19:00.970Z,22.21
2019-04-22T06:21:28.196Z,21.94
2019-04-22T06:24:07.773Z,21.80
2019-04-22T06:26:40.895Z,21.56
2019-04-22T06:29:01.543Z,21.44
2019-04-22T06:31:52.657Z,21.17
2019-04-22T06:34:14.445Z,21.14
2019-04-22T06:36:37.868Z,20.90
2019-04-22T06:39:13.362Z,20.80
2019-04-22T06:41:45.838Z,20.48
2019-04-22T06:44:45.683Z,20.46
2019-04-22T06:47:25.115Z,20.29
2019-04-22T06:49:41.673Z,20.38
2019-04-22T06:54:48.891Z,19.88
2019-04-22T06:57:19.412Z,19.94
2019-04-22T06:59:52.062Z,19.86
2019-04-22T07:02:23.864Z,19.67
2019-04-22T07:04:58.361Z,19.47
2019-04-22T07:07:23.769Z,19.37
2019-04-22T07:10:00.014Z,19.25
2019-04-22T07:15:02.829Z,18.94
2019-04-22T07:17:30.916Z,18.74
2019-04-22T07:20:01.183Z,18.78
2019-04-22T07:22:33.843Z,18.65
2019-04-22T07:24:59.239Z,18.51
2019-04-22T07:27:27.825Z,18.25
2019-04-22T07:30:09.322Z,17.84
2019-04-22T07:32:53.628Z,17.75
2019-04-22T07:35:11.132Z,17.25
2019-04-22T07:37:37.073Z,17.04
2019-04-22T07:40:11.224Z,17.38
2019-04-22T07:42:36.549Z,16.89
2019-04-22T07:45:10.707Z,16.98
2019-04-22T07:47:47.851Z,16.05
2019-04-22T07:52:43.015Z,16.67
2019-04-22T07:55:07.121Z,16.43
2019-04-22T07:57:44.539Z,16.58
2019-04-22T08:02:53.924Z,15.95
2019-04-22T08:05:20.665Z,15.62
2019-04-22T08:07:52.455Z,14.82
2019-04-22T08:10:29.832Z,14.64
2019-04-22T08:12:50.804Z,14.21
2019-04-22T08:15:27.394Z,14.56
2019-04-22T08:18:08.618Z,14.60
2019-04-22T08:20:30.743Z,14.73
2019-04-22T08:23:07.497Z,14.70
2019-04-22T08:25:24.906Z,14.60
2019-04-22T08:27:59.861Z,14.29
2019-04-22T08:30:33.803Z,13.85
2019-04-22T08:33:05.044Z,13.99
2019-04-22T08:38:10.002Z,14.06
2019-04-22T08:40:44.118Z,13.92
2019-04-22T08:43:13.976Z,13.33
2019-04-22T08:45:44.361Z,13.56
2019-04-22T08:48:07.535Z,13.44
2019-04-22T08:53:28.715Z,13.52
2019-04-22T08:55:52.015Z,13.12
2019-04-22T08:58:27.998Z,12.72
2019-04-22T09:00:51.583Z,12.71
2019-04-22T09:03:20.850Z,12.00
2019-04-22T09:06:02.094Z,12.33
2019-04-22T09:08:23.072Z,11.60
2019-04-22T09:10:48.640Z,11.37
2019-04-22T09:13:22.208Z,11.49
2019-04-22T09:15:49.603Z,11.47
2019-04-22T09:18:29.398Z,11.10
2019-04-22T09:21:07.087Z,11.18
2019-04-22T09:23:30.306Z,11.07
2019-04-22T09:25:55.927Z,11.26
2019-04-22T09:28:32.651Z,10.98
2019-04-22T09:31:01.360Z,10.57
2019-04-22T09:33:32.221Z,10.50
2019-04-22T09:36:12.448Z,10.29
2019-04-22T09:38:38.359Z,10.13
2019-04-22T09:41:10.664Z,9.53
2019-04-22T09:43:43.397Z,9.71
2019-04-22T09:46:08.888Z,9.64
2019-04-22T09:48:43.890Z,9.50
2019-04-22T09:51:07.068Z,9.16
2019-04-22T09:53:47.101Z,8.74
2019-04-22T09:56:10.152Z,8.72
2019-04-22T09:58:44.126Z,9.05
2019-04-22T10:01:22.668Z,8.78
2019-04-22T10:03:53.385Z,8.37
2019-04-22T10:06:23.108Z,8.38
2019-04-22T10:11:23.966Z,8.19
2019-04-22T10:16:27.196Z,7.60
2019-04-22T10:18:55.231Z,6.56
2019-04-22T10:21:30.107Z,6.83
2019-04-22T10:23:59.599Z,7.06
2019-04-22T10:26:28.031Z,6.61
2019-04-22T10:29:02.866Z,6.37
2019-04-22T10:31:32.789Z,6.36
2019-04-22T10:33:49.646Z,6.05
2019-04-22T10:36:07.851Z,5.83
2019-04-22T10:38:37.100Z,5.88
2019-04-22T10:41:06.220Z,4.90
2019-04-22T10:43:35.316Z,4.73
2019-04-22T10:46:08.104Z,5.37
2019-04-22T10:48:37.404Z,4.76
2019-04-22T10:51:06.746Z,5.12
2019-04-22T10:53:35.880Z,4.88
2019-04-22T10:56:09.421Z,5.09
2019-04-22T10:58:38.595Z,4.70
2019-04-22T11:01:09.678Z,4.62
2019-04-22T11:03:39.522Z,4.84
2019-04-22T11:06:09.656Z,4.34
2019-04-22T11:08:49.689Z,4.84
2019-04-22T11:11:25.983Z,4.89
2019-04-22T11:13:43.940Z,4.85
2019-04-22T11:16:13.849Z,4.80
2019-04-22T11:18:43.449Z,4.70
2019-04-22T11:21:15.794Z,5.37
2019-04-22T11:23:47.019Z,5.50
2019-04-22T11:26:17.764Z,5.58
2019-04-22T11:28:47.654Z,5.64
2019-04-22T11:31:18.558Z,5.35
2019-04-22T11:33:48.382Z,5.09
2019-04-22T11:36:19.942Z,4.99
2019-04-22T11:38:55.879Z,4.55
2019-04-22T11:41:23.662Z,4.67
2019-04-22T11:43:53.617Z,4.46
2019-04-22T11:46:23.219Z,4.54
2019-04-22T11:48:52.354Z,4.55
2019-04-22T11:51:24.260Z,4.58
2019-04-22T11:53:54.733Z,4.24
2019-04-22T11:56:25.152Z,4.74
2019-04-22T11:58:55.399Z,4.88
2019-04-22T12:01:26.650Z,4.28
2019-04-22T12:03:57.976Z,3.79
2019-04-22T12:06:29.625Z,3.79
2019-04-22T12:08:59.738Z,3.80
2019-04-22T12:11:30.256Z,3.63
2019-04-22T12:14:01.802Z,3.91
2019-04-22T12:16:32.318Z,4.19
2019-04-22T12:19:03.160Z,4.01
2019-04-22T12:21:35.192Z,4.11
2019-04-22T12:24:06.309Z,4.06
2019-04-22T12:26:35.369Z,4.43
2019-04-22T12:29:08.838Z,4.31
2019-04-22T12:31:39.882Z,4.06
2019-04-22T12:34:08.987Z,4.07
2019-04-22T12:36:40.133Z,4.10
2019-04-22T12:39:11.548Z,3.93
2019-04-22T12:41:42.406Z,3.81
2019-04-22T12:44:13.368Z,3.95
2019-04-22T12:46:46.003Z,3.81
2019-04-22T12:49:16.436Z,3.61
2019-04-22T12:51:47.513Z,3.45
2019-04-22T12:54:19.333Z,3.58
2019-04-22T12:56:49.400Z,3.46
2019-04-22T12:59:19.496Z,3.70
2019-04-22T13:01:51.174Z,3.68
2019-04-22T13:04:23.189Z,3.47
2019-04-22T13:06:53.613Z,3.50
2019-04-22T13:09:25.141Z,3.47
2019-04-22T13:11:59.203Z,3.46
2019-04-22T13:14:30.534Z,3.28
2019-04-22T13:17:03.920Z,3.37
2019-04-22T13:19:34.086Z,3.35
2019-04-22T13:22:05.088Z,3.31
2019-04-22T13:24:36.608Z,3.44
2019-04-22T13:27:06.794Z,3.41
2019-04-22T13:29:41.252Z,3.60
2019-04-22T13:32:12.991Z,3.52
2019-04-22T13:34:48.140Z,3.41
2019-04-22T13:37:14.934Z,3.34
2019-04-22T13:39:45.108Z,3.58
2019-04-22T13:42:19.649Z,3.76
2019-04-22T13:44:47.452Z,3.76
2019-04-22T13:47:35.003Z,3.75
2019-04-22T13:52:59.812Z,3.81
2019-04-22T13:55:23.981Z,3.95
2019-04-22T13:57:41.346Z,4.12
2019-04-22T14:00:01.887Z,4.12
2019-04-22T14:02:32.718Z,4.29
2019-04-22T14:05:04.265Z,4.48
2019-04-22T14:07:36.905Z,4.36
2019-04-22T14:10:12.139Z,4.55
2019-04-22T14:12:44.654Z,4.50
2019-04-22T14:15:15.864Z,4.92
2019-04-22T14:17:47.111Z,4.67
2019-04-22T14:20:16.594Z,4.77
2019-04-22T14:22:46.694Z,4.85
2019-04-22T14:25:18.940Z,4.74
2019-04-22T14:27:56.542Z,4.60
2019-04-22T14:30:24.459Z,4.48
2019-04-22T14:32:55.952Z,4.72
2019-04-22T14:35:27.022Z,5.05
2019-04-22T14:37:58.250Z,5.07
2019-04-22T14:40:28.691Z,4.76
2019-04-22T14:43:27.313Z,4.94
2019-04-22T14:48:35.937Z,5.18
2019-04-22T14:51:06.196Z,5.13
2019-04-22T14:53:38.281Z,5.10
2019-04-22T14:55:48.583Z,5.04
2019-04-22T14:58:19.266Z,4.93
2019-04-22T15:00:51.921Z,5.19
2019-04-22T15:03:23.820Z,4.92
2019-04-22T15:05:54.507Z,5.16
2019-04-22T15:08:24.819Z,5.07
2019-04-22T15:10:58.115Z,5.35
2019-04-22T15:13:29.410Z,5.64
2019-04-22T15:16:02.961Z,5.68
2019-04-22T15:18:49.569Z,6.07
2019-04-22T15:21:24.961Z,5.90
2019-04-22T15:23:56.278Z,5.86
2019-04-22T15:26:28.477Z,5.67
2019-04-22T15:28:59.758Z,5.47
2019-04-22T15:31:31.361Z,5.33
2019-04-22T15:34:02.635Z,5.30
2019-04-22T15:36:33.022Z,5.53
2019-04-22T15:39:07.161Z,5.51
2019-04-22T15:41:38.692Z,5.50
2019-04-22T15:44:10.128Z,5.60
2019-04-22T15:46:42.520Z,5.74
2019-04-22T15:49:15.973Z,5.60
2019-04-22T15:51:47.284Z,5.65
2019-04-22T15:54:17.447Z,5.66
2019-04-22T15:56:50.606Z,5.83
2019-04-22T15:59:39.960Z,5.97
2019-04-22T16:01:58.196Z,5.90
2019-04-22T16:04:26.319Z,5.73
2019-04-22T16:06:57.023Z,6.00
2019-04-22T16:09:27.357Z,5.99
2019-04-22T16:12:09.969Z,6.01
2019-04-22T16:14:38.898Z,6.15
2019-04-22T16:17:02.478Z,6.15
2019-04-22T16:19:34.965Z,6.17
2019-04-22T16:22:11.179Z,6.43
2019-04-22T16:24:42.403Z,6.52
2019-04-22T16:27:18.661Z,6.63
2019-04-22T16:29:49.705Z,6.78
2019-04-22T16:32:21.219Z,6.85
2019-04-22T16:34:50.748Z,6.97
2019-04-22T16:37:21.073Z,7.06
2019-04-22T16:39:52.854Z,7.21
2019-04-22T16:42:33.280Z,7.25
2019-04-22T16:44:57.552Z,7.37
2019-04-22T16:47:28.033Z,7.65
2019-04-22T16:50:01.306Z,8.06
2019-04-22T16:52:32.297Z,7.88
2019-04-22T16:55:03.467Z,8.12
2019-04-22T16:57:37.702Z,8.36
2019-04-22T17:00:11.231Z,8.47
2019-04-22T17:03:00.708Z,8.52
2019-04-22T17:05:49.879Z,8.82
2019-04-22T17:08:22.203Z,9.01
2019-04-22T17:10:55.662Z,9.32
2019-04-22T17:13:30.279Z,9.50
2019-04-22T17:16:00.856Z,9.56
2019-04-22T17:18:31.062Z,9.86
2019-04-22T17:21:04.691Z,10.12
2019-04-22T17:23:33.865Z,10.31
2019-04-22T17:26:04.016Z,10.45
2019-04-22T17:28:35.368Z,10.73
2019-04-22T17:31:08.698Z,10.86
2019-04-22T17:33:39.227Z,10.94
2019-04-22T17:36:11.996Z,11.05
2019-04-22T17:38:53.113Z,10.97
2019-04-22T17:41:28.565Z,11.13
2019-04-22T17:44:12.208Z,11.30
2019-04-22T17:46:42.026Z,11.40
2019-04-22T17:49:21.848Z,11.45
2019-04-22T17:52:10.755Z,11.37
2019-04-22T17:54:46.792Z,11.41
2019-04-22T17:57:13.547Z,11.57
2019-04-22T17:59:42.193Z,11.68
2019-04-22T18:02:09.666Z,11.62
2019-04-22T18:04:35.278Z,11.73
2019-04-22T18:07:24.457Z,11.66
2019-04-22T18:10:16.241Z,11.78
2019-04-22T18:12:34.214Z,12.03
2019-04-22T18:15:16.317Z,11.98
2019-04-22T18:17:37.410Z,12.07
2019-04-22T18:19:58.333Z,12.03
2019-04-22T18:22:27.405Z,12.20
2019-04-22T18:24:58.701Z,12.34
2019-04-22T18:27:45.735Z,12.38
2019-04-22T18:30:04.060Z,12.54
2019-04-22T18:32:42.501Z,12.67
2019-04-22T18:35:18.520Z,12.83
2019-04-22T18:40:18.581Z,12.86
2019-04-22T18:42:58.413Z,12.87
2019-04-22T18:47:51.892Z,13.14
2019-04-22T18:50:37.021Z,13.33
2019-04-22T18:53:13.174Z,13.78
2019-04-22T18:55:33.843Z,14.33
2019-04-22T18:58:08.505Z,14.63
2019-04-22T19:00:37.591Z,14.85
2019-04-22T19:03:15.923Z,14.69
2019-04-22T19:06:03.595Z,14.88
2019-04-22T19:08:30.417Z,14.80
2019-04-22T19:11:08.475Z,15.17
2019-04-22T19:14:00.720Z,15.47
2019-04-22T19:19:10.014Z,15.64
2019-04-22T19:21:13.190Z,15.87
2019-04-22T19:23:45.033Z,15.65
2019-04-22T19:26:25.511Z,15.67
2019-04-22T19:28:46.461Z,15.99
2019-04-22T19:31:22.016Z,16.05
2019-04-22T19:33:56.250Z,16.44
2019-04-22T19:36:22.716Z,16.56
2019-04-22T19:38:55.172Z,16.76
2019-04-22T19:43:56.873Z,16.58
2019-04-22T19:46:22.115Z,16.80
2019-04-22T19:49:06.126Z,16.66
2019-04-22T19:51:38.372Z,16.50
2019-04-22T19:54:01.510Z,16.65
2019-04-22T19:56:26.477Z,16.42
2019-04-22T19:58:59.123Z,16.71
2019-04-22T20:01:38.643Z,17.24
2019-04-22T20:04:21.649Z,17.23
2019-04-22T20:06:52.276Z,17.34
2019-04-22T20:09:26.796Z,17.42
2019-04-22T20:11:49.615Z,17.40
2019-04-22T20:14:21.931Z,17.39
2019-04-22T20:16:48.727Z,17.36
2019-04-22T20:19:32.267Z,17.62
2019-04-22T20:21:59.579Z,17.60
2019-04-22T20:24:16.751Z,17.98
2019-04-22T20:27:05.645Z,18.28
2019-04-22T20:29:39.990Z,18.12
2019-04-22T20:32:08.913Z,18.40
2019-04-22T20:34:40.949Z,18.52
2019-04-22T20:37:29.481Z,18.73
2019-04-22T20:39:44.129Z,18.73
2019-04-22T20:42:23.474Z,18.86
2019-04-22T20:44:46.074Z,18.70
2019-04-22T20:47:09.311Z,18.65
2019-04-22T20:49:47.502Z,18.82
2019-04-22T20:54:49.491Z,18.99
2019-04-22T20:57:15.825Z,18.97
2019-04-22T20:59:48.244Z,19.05
2019-04-22T21:02:17.964Z,19.05
2019-04-22T21:04:44.178Z,19.21
2019-04-22T21:07:24.293Z,19.23
2019-04-22T21:09:56.909Z,18.97
2019-04-22T21:12:20.345Z,19.26
2019-04-22T21:15:06.802Z,19.15
2019-04-22T21:17:31.217Z,19.32
2019-04-22T21:20:10.054Z,18.97
2019-04-22T21:22:33.868Z,19.42
2019-04-22T21:25:03.547Z,19.45
2019-04-22T21:27:42.377Z,19.41
2019-04-22T21:29:58.131Z,19.47
2019-04-22T21:32:38.535Z,19.52
2019-04-22T21:35:16.283Z,19.42
2019-04-22T21:37:43.288Z,19.56
2019-04-22T21:40:13.736Z,19.72
2019-04-22T21:42:48.558Z,19.79
2019-04-22T21:45:07.261Z,19.64
2019-04-22T21:47:57.118Z,19.74
2019-04-22T21:50:35.924Z,20.13
2019-04-22T21:52:59.218Z,20.05
2019-04-22T21:55:25.232Z,19.90
2019-04-22T21:58:04.775Z,20.15
2019-04-22T22:00:43.512Z,20.48
2019-04-22T22:03:07.194Z,20.25
2019-04-22T22:05:30.110Z,20.36
2019-04-22T22:07:55.839Z,20.32
2019-04-22T22:10:39.776Z,20.22
2019-04-22T22:13:11.103Z,20.27
2019-04-22T22:15:42.098Z,20.35
2019-04-22T22:18:10.035Z,20.46
2019-04-22T22:20:53.796Z,20.49
2019-04-22T22:23:25.234Z,20.61
2019-04-22T22:25:48.013Z,20.78
2019-04-22T22:28:40.995Z,20.67
2019-04-22T22:31:02.037Z,20.80
2019-04-22T22:33:33.361Z,20.65
2019-04-22T22:35:58.455Z,21.07
2019-04-22T22:38:26.971Z,20.94
2019-04-22T22:40:43.843Z,20.83
2019-04-22T22:43:24.882Z,20.68
2019-04-22T22:45:54.502Z,20.95
2019-04-22T22:48:41.333Z,20.71
2019-04-22T22:51:03.374Z,20.70
2019-04-22T22:53:46.415Z,20.84
2019-04-22T22:56:13.569Z,21.22
2019-04-22T22:58:41.046Z,21.21
2019-04-22T23:01:10.071Z,21.06
2019-04-22T23:03:51.719Z,21.04
2019-04-22T23:06:21.441Z,21.38
2019-04-22T23:08:52.662Z,21.10
2019-04-22T23:11:34.942Z,21.02
2019-04-22T23:13:56.954Z,21.08
2019-04-22T23:16:14.891Z,21.25
2019-04-22T23:18:37.166Z,21.25
2019-04-22T23:21:15.977Z,20.97
2019-04-22T23:23:57.720Z,21.06
2019-04-22T23:26:30.488Z,21.17
2019-04-22T23:29:16.072Z,21.29
2019-04-22T23:31:44.133Z,21.44
2019-04-22T23:34:21.124Z,21.32
2019-04-22T23:37:12.193Z,21.72
2019-04-22T23:39:56.061Z,21.59
2019-04-22T23:42:21.908Z,21.54
2019-04-22T23:44:56.356Z,21.61
2019-04-22T23:47:29.336Z,21.60
2019-04-22T23:50:09.375Z,21.38
2019-04-22T23:52:49.403Z,21.65
2019-04-22T23:55:14.328Z,21.63
2019-04-22T23:57:47.309Z,21.80
